sensor_id;sensor_type;location;lat;lon;timestamp;P1;durP1;ratioP1;P2;durP2;ratioP2
14400;SDS011;7285;50.894;5.462;2022-09-01T00:01:36;0.30;;;0.30;;
14400;SDS011;7285;50.894;5.462;2022-09-01T00:04:05;0.30;;;0.30;;
14400;SDS011;7285;50.894;5.462;2022-09-01T00:06:34;0.20;;;0.20;;
14400;SDS011;7285;50.894;5.462;2022-09-01T00:09:05;0.30;;;0.30;;
14400;SDS011;7285;50.894;5.462;2022-09-01T00:11:35;0.20;;;0.20;;
14400;SDS011;7285;50.894;5.462;2022-09-01T00:14:02;0.30;;;0.30;;
14400;SDS011;7285;50.894;5.462;2022-09-01T00:16:32;0.43;;;0.43;;
14400;SDS011;7285;50.894;5.462;2022-09-01T00:18:59;0.30;;;0.30;;
14400;SDS011;7285;50.894;5.462;2022-09-01T00:21:28;0.20;;;0.20;;
14400;SDS011;7285;50.894;5.462;2022-09-01T00:23:58;0.20;;;0.20;;
14400;SDS011;7285;50.894;5.462;2022-09-01T00:26:25;0.20;;;0.20;;
14400;SDS011;7285;50.894;5.462;2022-09-01T00:28:53;0.20;;;0.20;;
14400;SDS011;7285;50.894;5.462;2022-09-01T00:31:20;0.40;;;0.40;;
14400;SDS011;7285;50.894;5.462;2022-09-01T00:33:49;0.20;;;0.20;;
14400;SDS011;7285;50.894;5.462;2022-09-01T00:36:17;0.40;;;0.40;;
14400;SDS011;7285;50.894;5.462;2022-09-01T00:38:45;0.20;;;0.20;;
14400;SDS011;7285;50.894;5.462;2022-09-01T00:41:12;0.30;;;0.30;;
14400;SDS011;7285;50.894;5.462;2022-09-01T00:43:40;0.30;;;0.30;;
14400;SDS011;7285;50.894;5.462;2022-09-01T00:46:10;0.20;;;0.20;;
14400;SDS011;7285;50.894;5.462;2022-09-01T00:48:39;0.20;;;0.20;;
14400;SDS011;7285;50.894;5.462;2022-09-01T00:51:09;0.30;;;0.30;;
14400;SDS011;7285;50.894;5.462;2022-09-01T00:53:38;0.20;;;0.20;;
14400;SDS011;7285;50.894;5.462;2022-09-01T00:56:06;0.20;;;0.20;;
14400;SDS011;7285;50.894;5.462;2022-09-01T00:58:34;0.30;;;0.30;;
14400;SDS011;7285;50.894;5.462;2022-09-01T01:01:02;0.30;;;0.30;;
14400;SDS011;7285;50.894;5.462;2022-09-01T01:03:30;0.40;;;0.40;;
14400;SDS011;7285;50.894;5.462;2022-09-01T01:05:59;0.27;;;0.27;;
14400;SDS011;7285;50.894;5.462;2022-09-01T01:08:34;0.40;;;0.40;;
14400;SDS011;7285;50.894;5.462;2022-09-01T01:11:04;0.50;;;0.50;;
14400;SDS011;7285;50.894;5.462;2022-09-01T01:13:40;0.30;;;0.30;;
14400;SDS011;7285;50.894;5.462;2022-09-01T01:16:15;0.30;;;0.30;;
14400;SDS011;7285;50.894;5.462;2022-09-01T01:18:42;0.30;;;0.30;;
14400;SDS011;7285;50.894;5.462;2022-09-01T01:21:14;0.40;;;0.40;;
14400;SDS011;7285;50.894;5.462;2022-09-01T01:24:04;0.20;;;0.20;;
14400;SDS011;7285;50.894;5.462;2022-09-01T01:26:37;0.20;;;0.20;;
14400;SDS011;7285;50.894;5.462;2022-09-01T01:29:04;0.40;;;0.40;;
14400;SDS011;7285;50.894;5.462;2022-09-01T01:31:34;0.30;;;0.30;;
14400;SDS011;7285;50.894;5.462;2022-09-01T01:34:02;0.30;;;0.30;;
14400;SDS011;7285;50.894;5.462;2022-09-01T01:36:34;0.43;;;0.43;;
14400;SDS011;7285;50.894;5.462;2022-09-01T01:39:03;0.30;;;0.30;;
14400;SDS011;7285;50.894;5.462;2022-09-01T01:41:33;0.30;;;0.30;;
14400;SDS011;7285;50.894;5.462;2022-09-01T01:44:02;0.50;;;0.50;;
14400;SDS011;7285;50.894;5.462;2022-09-01T01:46:30;0.33;;;0.33;;
14400;SDS011;7285;50.894;5.462;2022-09-01T01:48:58;0.30;;;0.30;;
14400;SDS011;7285;50.894;5.462;2022-09-01T01:51:27;0.30;;;0.30;;
14400;SDS011;7285;50.894;5.462;2022-09-01T01:53:56;0.30;;;0.30;;
14400;SDS011;7285;50.894;5.462;2022-09-01T01:56:25;0.30;;;0.30;;
14400;SDS011;7285;50.894;5.462;2022-09-01T01:58:53;0.30;;;0.30;;
14400;SDS011;7285;50.894;5.462;2022-09-01T02:01:23;0.30;;;0.30;;
14400;SDS011;7285;50.894;5.462;2022-09-01T02:03:53;0.37;;;0.37;;
14400;SDS011;7285;50.894;5.462;2022-09-01T02:06:21;0.40;;;0.40;;
14400;SDS011;7285;50.894;5.462;2022-09-01T02:08:49;0.40;;;0.40;;
14400;SDS011;7285;50.894;5.462;2022-09-01T02:11:20;0.30;;;0.30;;
14400;SDS011;7285;50.894;5.462;2022-09-01T02:13:47;0.30;;;0.30;;
14400;SDS011;7285;50.894;5.462;2022-09-01T02:16:22;0.37;;;0.37;;
14400;SDS011;7285;50.894;5.462;2022-09-01T02:18:50;0.50;;;0.50;;
14400;SDS011;7285;50.894;5.462;2022-09-01T02:21:19;0.33;;;0.33;;
14400;SDS011;7285;50.894;5.462;2022-09-01T02:23:49;0.40;;;0.40;;
14400;SDS011;7285;50.894;5.462;2022-09-01T02:26:21;0.30;;;0.30;;
14400;SDS011;7285;50.894;5.462;2022-09-01T02:28:54;0.30;;;0.30;;
14400;SDS011;7285;50.894;5.462;2022-09-01T02:31:22;0.40;;;0.40;;
14400;SDS011;7285;50.894;5.462;2022-09-01T02:33:51;0.30;;;0.30;;
14400;SDS011;7285;50.894;5.462;2022-09-01T02:36:19;0.40;;;0.40;;
14400;SDS011;7285;50.894;5.462;2022-09-01T02:38:49;0.30;;;0.30;;
14400;SDS011;7285;50.894;5.462;2022-09-01T02:41:16;0.40;;;0.40;;
14400;SDS011;7285;50.894;5.462;2022-09-01T02:43:45;0.40;;;0.40;;
14400;SDS011;7285;50.894;5.462;2022-09-01T02:46:12;0.40;;;0.40;;
14400;SDS011;7285;50.894;5.462;2022-09-01T02:48:42;0.30;;;0.30;;
14400;SDS011;7285;50.894;5.462;2022-09-01T02:51:11;0.50;;;0.50;;
14400;SDS011;7285;50.894;5.462;2022-09-01T02:53:40;0.33;;;0.33;;
14400;SDS011;7285;50.894;5.462;2022-09-01T02:56:09;0.50;;;0.50;;
14400;SDS011;7285;50.894;5.462;2022-09-01T02:58:38;0.40;;;0.40;;
14400;SDS011;7285;50.894;5.462;2022-09-01T03:01:10;0.43;;;0.43;;
14400;SDS011;7285;50.894;5.462;2022-09-01T03:03:40;0.40;;;0.40;;
14400;SDS011;7285;50.894;5.462;2022-09-01T03:06:07;0.40;;;0.40;;
14400;SDS011;7285;50.894;5.462;2022-09-01T03:08:37;0.43;;;0.43;;
14400;SDS011;7285;50.894;5.462;2022-09-01T03:11:04;0.40;;;0.40;;
14400;SDS011;7285;50.894;5.462;2022-09-01T03:13:35;0.50;;;0.50;;
14400;SDS011;7285;50.894;5.462;2022-09-01T03:16:03;0.73;;;0.73;;
14400;SDS011;7285;50.894;5.462;2022-09-01T03:18:30;0.40;;;0.40;;
14400;SDS011;7285;50.894;5.462;2022-09-01T03:20:58;0.50;;;0.50;;
14400;SDS011;7285;50.894;5.462;2022-09-01T03:23:26;0.40;;;0.40;;
14400;SDS011;7285;50.894;5.462;2022-09-01T03:25:56;0.50;;;0.50;;
14400;SDS011;7285;50.894;5.462;2022-09-01T03:28:23;0.40;;;0.40;;
14400;SDS011;7285;50.894;5.462;2022-09-01T03:30:51;0.40;;;0.40;;
14400;SDS011;7285;50.894;5.462;2022-09-01T03:33:20;0.50;;;0.50;;
14400;SDS011;7285;50.894;5.462;2022-09-01T03:35:49;0.50;;;0.50;;
14400;SDS011;7285;50.894;5.462;2022-09-01T03:38:17;0.40;;;0.40;;
14400;SDS011;7285;50.894;5.462;2022-09-01T03:40:46;0.50;;;0.50;;
14400;SDS011;7285;50.894;5.462;2022-09-01T03:43:15;0.40;;;0.40;;
14400;SDS011;7285;50.894;5.462;2022-09-01T03:45:44;0.40;;;0.40;;
14400;SDS011;7285;50.894;5.462;2022-09-01T03:48:11;0.50;;;0.50;;
14400;SDS011;7285;50.894;5.462;2022-09-01T03:50:41;0.50;;;0.50;;
14400;SDS011;7285;50.894;5.462;2022-09-01T03:53:11;0.50;;;0.50;;
14400;SDS011;7285;50.894;5.462;2022-09-01T03:55:42;0.40;;;0.40;;
14400;SDS011;7285;50.894;5.462;2022-09-01T03:58:11;0.30;;;0.30;;
14400;SDS011;7285;50.894;5.462;2022-09-01T04:00:44;0.70;;;0.70;;
14400;SDS011;7285;50.894;5.462;2022-09-01T04:03:13;0.47;;;0.47;;
14400;SDS011;7285;50.894;5.462;2022-09-01T04:05:46;0.60;;;0.60;;
14400;SDS011;7285;50.894;5.462;2022-09-01T04:08:15;0.50;;;0.50;;
14400;SDS011;7285;50.894;5.462;2022-09-01T04:10:45;0.40;;;0.40;;
14400;SDS011;7285;50.894;5.462;2022-09-01T04:13:15;0.50;;;0.50;;
14400;SDS011;7285;50.894;5.462;2022-09-01T04:15:43;0.70;;;0.70;;
14400;SDS011;7285;50.894;5.462;2022-09-01T04:18:10;0.50;;;0.50;;
14400;SDS011;7285;50.894;5.462;2022-09-01T04:20:45;0.50;;;0.50;;
14400;SDS011;7285;50.894;5.462;2022-09-01T04:23:17;0.57;;;0.57;;
14400;SDS011;7285;50.894;5.462;2022-09-01T04:25:53;0.40;;;0.40;;
14400;SDS011;7285;50.894;5.462;2022-09-01T04:28:22;0.93;;;0.93;;
14400;SDS011;7285;50.894;5.462;2022-09-01T04:30:50;0.50;;;0.50;;
14400;SDS011;7285;50.894;5.462;2022-09-01T04:33:20;0.40;;;0.40;;
14400;SDS011;7285;50.894;5.462;2022-09-01T04:35:48;0.60;;;0.60;;
14400;SDS011;7285;50.894;5.462;2022-09-01T04:38:19;0.50;;;0.50;;
14400;SDS011;7285;50.894;5.462;2022-09-01T04:40:47;0.40;;;0.40;;
14400;SDS011;7285;50.894;5.462;2022-09-01T04:43:16;0.40;;;0.40;;
14400;SDS011;7285;50.894;5.462;2022-09-01T04:45:44;0.40;;;0.40;;
14400;SDS011;7285;50.894;5.462;2022-09-01T04:48:14;0.60;;;0.60;;
14400;SDS011;7285;50.894;5.462;2022-09-01T04:50:41;0.50;;;0.50;;
14400;SDS011;7285;50.894;5.462;2022-09-01T04:53:09;0.50;;;0.50;;
14400;SDS011;7285;50.894;5.462;2022-09-01T04:55:37;0.60;;;0.60;;
14400;SDS011;7285;50.894;5.462;2022-09-01T04:58:05;0.40;;;0.40;;
14400;SDS011;7285;50.894;5.462;2022-09-01T05:00:33;0.53;;;0.53;;
14400;SDS011;7285;50.894;5.462;2022-09-01T05:03:01;0.50;;;0.50;;
14400;SDS011;7285;50.894;5.462;2022-09-01T05:05:29;0.50;;;0.50;;
14400;SDS011;7285;50.894;5.462;2022-09-01T05:08:03;0.50;;;0.50;;
14400;SDS011;7285;50.894;5.462;2022-09-01T05:10:32;0.50;;;0.50;;
14400;SDS011;7285;50.894;5.462;2022-09-01T05:13:01;0.60;;;0.60;;
14400;SDS011;7285;50.894;5.462;2022-09-01T05:15:35;0.40;;;0.40;;
14400;SDS011;7285;50.894;5.462;2022-09-01T05:18:02;0.50;;;0.50;;
14400;SDS011;7285;50.894;5.462;2022-09-01T05:20:35;0.57;;;0.57;;
14400;SDS011;7285;50.894;5.462;2022-09-01T05:23:05;0.57;;;0.57;;
14400;SDS011;7285;50.894;5.462;2022-09-01T05:25:36;0.50;;;0.50;;
14400;SDS011;7285;50.894;5.462;2022-09-01T05:28:04;0.40;;;0.40;;
14400;SDS011;7285;50.894;5.462;2022-09-01T05:30:35;0.50;;;0.50;;
14400;SDS011;7285;50.894;5.462;2022-09-01T05:33:02;0.53;;;0.53;;
14400;SDS011;7285;50.894;5.462;2022-09-01T05:35:34;0.50;;;0.50;;
14400;SDS011;7285;50.894;5.462;2022-09-01T05:38:02;0.50;;;0.50;;
14400;SDS011;7285;50.894;5.462;2022-09-01T05:40:33;0.50;;;0.50;;
14400;SDS011;7285;50.894;5.462;2022-09-01T05:43:01;0.53;;;0.53;;
14400;SDS011;7285;50.894;5.462;2022-09-01T05:45:28;0.50;;;0.50;;
14400;SDS011;7285;50.894;5.462;2022-09-01T05:47:57;0.50;;;0.50;;
14400;SDS011;7285;50.894;5.462;2022-09-01T05:50:24;0.43;;;0.43;;
14400;SDS011;7285;50.894;5.462;2022-09-01T05:52:52;0.50;;;0.50;;
14400;SDS011;7285;50.894;5.462;2022-09-01T05:55:20;0.50;;;0.50;;
14400;SDS011;7285;50.894;5.462;2022-09-01T05:57:47;0.50;;;0.50;;
14400;SDS011;7285;50.894;5.462;2022-09-01T06:00:14;0.40;;;0.40;;
14400;SDS011;7285;50.894;5.462;2022-09-01T06:02:42;0.50;;;0.50;;
14400;SDS011;7285;50.894;5.462;2022-09-01T06:05:10;0.50;;;0.50;;
14400;SDS011;7285;50.894;5.462;2022-09-01T06:07:39;0.50;;;0.50;;
14400;SDS011;7285;50.894;5.462;2022-09-01T06:10:07;0.40;;;0.40;;
14400;SDS011;7285;50.894;5.462;2022-09-01T06:12:34;0.60;;;0.60;;
14400;SDS011;7285;50.894;5.462;2022-09-01T06:15:01;0.50;;;0.50;;
14400;SDS011;7285;50.894;5.462;2022-09-01T06:17:31;0.50;;;0.50;;
14400;SDS011;7285;50.894;5.462;2022-09-01T06:19:58;0.40;;;0.40;;
14400;SDS011;7285;50.894;5.462;2022-09-01T06:22:27;0.50;;;0.50;;
14400;SDS011;7285;50.894;5.462;2022-09-01T06:24:54;0.40;;;0.40;;
14400;SDS011;7285;50.894;5.462;2022-09-01T06:27:23;0.47;;;0.47;;
14400;SDS011;7285;50.894;5.462;2022-09-01T06:29:51;0.50;;;0.50;;
14400;SDS011;7285;50.894;5.462;2022-09-01T06:32:18;0.37;;;0.37;;
14400;SDS011;7285;50.894;5.462;2022-09-01T06:34:45;0.50;;;0.50;;
14400;SDS011;7285;50.894;5.462;2022-09-01T06:37:15;0.50;;;0.50;;
14400;SDS011;7285;50.894;5.462;2022-09-01T06:39:48;0.40;;;0.40;;
14400;SDS011;7285;50.894;5.462;2022-09-01T06:42:15;0.83;;;0.83;;
14400;SDS011;7285;50.894;5.462;2022-09-01T06:44:43;0.30;;;0.30;;
14400;SDS011;7285;50.894;5.462;2022-09-01T06:47:11;0.30;;;0.30;;
14400;SDS011;7285;50.894;5.462;2022-09-01T06:49:39;0.40;;;0.40;;
14400;SDS011;7285;50.894;5.462;2022-09-01T06:52:06;0.33;;;0.33;;
14400;SDS011;7285;50.894;5.462;2022-09-01T06:54:33;0.40;;;0.40;;
14400;SDS011;7285;50.894;5.462;2022-09-01T06:57:05;0.40;;;0.40;;
14400;SDS011;7285;50.894;5.462;2022-09-01T06:59:32;0.30;;;0.30;;
14400;SDS011;7285;50.894;5.462;2022-09-01T07:01:59;0.30;;;0.30;;
14400;SDS011;7285;50.894;5.462;2022-09-01T07:04:27;0.80;;;0.80;;
14400;SDS011;7285;50.894;5.462;2022-09-01T07:06:55;0.40;;;0.40;;
14400;SDS011;7285;50.894;5.462;2022-09-01T07:09:22;0.60;;;0.60;;
14400;SDS011;7285;50.894;5.462;2022-09-01T07:11:50;0.20;;;0.20;;
14400;SDS011;7285;50.894;5.462;2022-09-01T07:14:20;0.20;;;0.20;;
14400;SDS011;7285;50.894;5.462;2022-09-01T07:16:47;0.20;;;0.20;;
14400;SDS011;7285;50.894;5.462;2022-09-01T07:19:14;0.30;;;0.30;;
14400;SDS011;7285;50.894;5.462;2022-09-01T07:21:42;0.70;;;0.70;;
14400;SDS011;7285;50.894;5.462;2022-09-01T07:24:10;0.37;;;0.37;;
14400;SDS011;7285;50.894;5.462;2022-09-01T07:26:40;0.40;;;0.40;;
14400;SDS011;7285;50.894;5.462;2022-09-01T07:29:07;0.47;;;0.47;;
14400;SDS011;7285;50.894;5.462;2022-09-01T07:31:38;0.20;;;0.20;;
14400;SDS011;7285;50.894;5.462;2022-09-01T07:34:08;0.20;;;0.20;;
14400;SDS011;7285;50.894;5.462;2022-09-01T07:36:37;0.40;;;0.40;;
14400;SDS011;7285;50.894;5.462;2022-09-01T07:39:07;0.40;;;0.40;;
14400;SDS011;7285;50.894;5.462;2022-09-01T07:41:34;0.60;;;0.50;;
14400;SDS011;7285;50.894;5.462;2022-09-01T07:44:02;0.30;;;0.30;;
14400;SDS011;7285;50.894;5.462;2022-09-01T07:46:29;0.43;;;0.43;;
14400;SDS011;7285;50.894;5.462;2022-09-01T07:48:59;0.20;;;0.20;;
14400;SDS011;7285;50.894;5.462;2022-09-01T07:51:27;0.20;;;0.20;;
14400;SDS011;7285;50.894;5.462;2022-09-01T07:53:56;0.37;;;0.37;;
14400;SDS011;7285;50.894;5.462;2022-09-01T07:56:26;0.87;;;0.87;;
14400;SDS011;7285;50.894;5.462;2022-09-01T07:58:55;0.20;;;0.20;;
14400;SDS011;7285;50.894;5.462;2022-09-01T08:01:23;0.30;;;0.30;;
14400;SDS011;7285;50.894;5.462;2022-09-01T08:03:53;0.20;;;0.20;;
14400;SDS011;7285;50.894;5.462;2022-09-01T08:06:24;0.43;;;0.43;;
14400;SDS011;7285;50.894;5.462;2022-09-01T08:08:53;0.60;;;0.60;;
14400;SDS011;7285;50.894;5.462;2022-09-01T08:11:21;0.30;;;0.30;;
14400;SDS011;7285;50.894;5.462;2022-09-01T08:13:50;0.30;;;0.30;;
14400;SDS011;7285;50.894;5.462;2022-09-01T08:16:18;0.20;;;0.20;;
14400;SDS011;7285;50.894;5.462;2022-09-01T08:18:46;0.23;;;0.23;;
14400;SDS011;7285;50.894;5.462;2022-09-01T08:21:13;0.20;;;0.20;;
14400;SDS011;7285;50.894;5.462;2022-09-01T08:23:43;0.40;;;0.40;;
14400;SDS011;7285;50.894;5.462;2022-09-01T08:26:12;0.20;;;0.20;;
14400;SDS011;7285;50.894;5.462;2022-09-01T08:28:40;0.20;;;0.20;;
14400;SDS011;7285;50.894;5.462;2022-09-01T08:31:08;0.20;;;0.20;;
14400;SDS011;7285;50.894;5.462;2022-09-01T08:33:36;0.30;;;0.30;;
14400;SDS011;7285;50.894;5.462;2022-09-01T08:36:05;0.33;;;0.33;;
14400;SDS011;7285;50.894;5.462;2022-09-01T08:38:33;0.27;;;0.27;;
14400;SDS011;7285;50.894;5.462;2022-09-01T08:41:02;0.30;;;0.30;;
14400;SDS011;7285;50.894;5.462;2022-09-01T08:43:34;0.30;;;0.30;;
14400;SDS011;7285;50.894;5.462;2022-09-01T08:46:12;0.20;;;0.20;;
14400;SDS011;7285;50.894;5.462;2022-09-01T08:48:44;0.30;;;0.30;;
14400;SDS011;7285;50.894;5.462;2022-09-01T08:51:14;0.30;;;0.30;;
14400;SDS011;7285;50.894;5.462;2022-09-01T08:53:50;0.30;;;0.30;;
14400;SDS011;7285;50.894;5.462;2022-09-01T08:56:25;0.20;;;0.20;;
14400;SDS011;7285;50.894;5.462;2022-09-01T08:58:53;0.20;;;0.20;;
14400;SDS011;7285;50.894;5.462;2022-09-01T09:01:21;0.20;;;0.20;;
14400;SDS011;7285;50.894;5.462;2022-09-01T09:04:00;0.23;;;0.23;;
14400;SDS011;7285;50.894;5.462;2022-09-01T09:06:37;0.20;;;0.20;;
14400;SDS011;7285;50.894;5.462;2022-09-01T09:09:10;0.37;;;0.37;;
14400;SDS011;7285;50.894;5.462;2022-09-01T09:14:53;0.43;;;0.43;;
14400;SDS011;7285;50.894;5.462;2022-09-01T09:17:28;0.20;;;0.20;;
14400;SDS011;7285;50.894;5.462;2022-09-01T09:19:59;0.20;;;0.20;;
14400;SDS011;7285;50.894;5.462;2022-09-01T09:22:27;0.27;;;0.27;;
14400;SDS011;7285;50.894;5.462;2022-09-01T09:24:56;0.20;;;0.20;;
14400;SDS011;7285;50.894;5.462;2022-09-01T09:27:28;0.20;;;0.20;;
14400;SDS011;7285;50.894;5.462;2022-09-01T09:29:59;0.20;;;0.20;;
14400;SDS011;7285;50.894;5.462;2022-09-01T09:32:40;0.20;;;0.20;;
14400;SDS011;7285;50.894;5.462;2022-09-01T09:35:19;0.20;;;0.20;;
14400;SDS011;7285;50.894;5.462;2022-09-01T09:37:51;0.13;;;0.13;;
14400;SDS011;7285;50.894;5.462;2022-09-01T09:40:20;0.20;;;0.20;;
14400;SDS011;7285;50.894;5.462;2022-09-01T09:43:02;0.27;;;0.27;;
14400;SDS011;7285;50.894;5.462;2022-09-01T09:45:33;0.13;;;0.13;;
14400;SDS011;7285;50.894;5.462;2022-09-01T09:48:04;0.10;;;0.10;;
14400;SDS011;7285;50.894;5.462;2022-09-01T09:50:34;0.30;;;0.30;;
14400;SDS011;7285;50.894;5.462;2022-09-01T09:53:14;0.10;;;0.10;;
14400;SDS011;7285;50.894;5.462;2022-09-01T09:55:58;0.10;;;0.10;;
14400;SDS011;7285;50.894;5.462;2022-09-01T09:58:27;0.20;;;0.20;;
14400;SDS011;7285;50.894;5.462;2022-09-01T10:01:03;0.40;;;0.40;;
14400;SDS011;7285;50.894;5.462;2022-09-01T10:03:33;0.20;;;0.20;;
14400;SDS011;7285;50.894;5.462;2022-09-01T10:06:01;0.40;;;0.40;;
14400;SDS011;7285;50.894;5.462;2022-09-01T10:08:36;0.30;;;0.30;;
14400;SDS011;7285;50.894;5.462;2022-09-01T10:11:09;0.20;;;0.20;;
14400;SDS011;7285;50.894;5.462;2022-09-01T10:13:50;0.10;;;0.10;;
14400;SDS011;7285;50.894;5.462;2022-09-01T10:16:21;0.20;;;0.20;;
14400;SDS011;7285;50.894;5.462;2022-09-01T10:18:52;0.30;;;0.30;;
14400;SDS011;7285;50.894;5.462;2022-09-01T10:21:25;0.10;;;0.10;;
14400;SDS011;7285;50.894;5.462;2022-09-01T10:23:55;0.10;;;0.10;;
14400;SDS011;7285;50.894;5.462;2022-09-01T10:26:24;0.22;;;0.22;;
14400;SDS011;7285;50.894;5.462;2022-09-01T10:28:56;0.10;;;0.10;;
14400;SDS011;7285;50.894;5.462;2022-09-01T10:31:27;0.10;;;0.10;;
14400;SDS011;7285;50.894;5.462;2022-09-01T10:33:55;0.10;;;0.10;;
14400;SDS011;7285;50.894;5.462;2022-09-01T10:36:23;0.22;;;0.22;;
14400;SDS011;7285;50.894;5.462;2022-09-01T10:38:50;0.20;;;0.20;;
14400;SDS011;7285;50.894;5.462;2022-09-01T10:44:17;0.10;;;0.10;;
14400;SDS011;7285;50.894;5.462;2022-09-01T10:46:47;0.10;;;0.10;;
14400;SDS011;7285;50.894;5.462;2022-09-01T10:55:27;0.38;;;0.38;;
14400;SDS011;7285;50.894;5.462;2022-09-01T10:57:59;0.88;;;0.38;;
14400;SDS011;7285;50.894;5.462;2022-09-01T11:00:50;0.10;;;0.10;;
14400;SDS011;7285;50.894;5.462;2022-09-01T11:03:47;0.10;;;0.10;;
14400;SDS011;7285;50.894;5.462;2022-09-01T11:06:30;0.20;;;0.20;;
14400;SDS011;7285;50.894;5.462;2022-09-01T11:09:18;0.10;;;0.10;;
14400;SDS011;7285;50.894;5.462;2022-09-01T11:11:50;0.20;;;0.20;;
14400;SDS011;7285;50.894;5.462;2022-09-01T11:14:46;0.00;;;0.00;;
14400;SDS011;7285;50.894;5.462;2022-09-01T11:17:15;0.05;;;0.05;;
14400;SDS011;7285;50.894;5.462;2022-09-01T11:19:47;0.10;;;0.10;;
14400;SDS011;7285;50.894;5.462;2022-09-01T11:22:23;0.25;;;0.25;;
14400;SDS011;7285;50.894;5.462;2022-09-01T11:25:05;0.10;;;0.10;;
14400;SDS011;7285;50.894;5.462;2022-09-01T11:28:04;0.10;;;0.10;;
14400;SDS011;7285;50.894;5.462;2022-09-01T11:30:40;0.10;;;0.10;;
14400;SDS011;7285;50.894;5.462;2022-09-01T11:33:27;0.10;;;0.10;;
14400;SDS011;7285;50.894;5.462;2022-09-01T11:36:12;0.30;;;0.30;;
14400;SDS011;7285;50.894;5.462;2022-09-01T11:38:47;0.05;;;0.05;;
14400;SDS011;7285;50.894;5.462;2022-09-01T11:41:19;0.10;;;0.10;;
14400;SDS011;7285;50.894;5.462;2022-09-01T11:43:49;0.00;;;0.00;;
14400;SDS011;7285;50.894;5.462;2022-09-01T11:46:20;0.10;;;0.10;;
14400;SDS011;7285;50.894;5.462;2022-09-01T11:48:49;0.00;;;0.00;;
14400;SDS011;7285;50.894;5.462;2022-09-01T11:51:18;0.10;;;0.10;;
14400;SDS011;7285;50.894;5.462;2022-09-01T11:53:46;0.28;;;0.28;;
14400;SDS011;7285;50.894;5.462;2022-09-01T11:56:15;0.10;;;0.10;;
14400;SDS011;7285;50.894;5.462;2022-09-01T11:58:44;0.08;;;0.08;;
14400;SDS011;7285;50.894;5.462;2022-09-01T12:01:12;0.20;;;0.20;;
14400;SDS011;7285;50.894;5.462;2022-09-01T12:03:42;0.20;;;0.20;;
14400;SDS011;7285;50.894;5.462;2022-09-01T12:06:10;0.20;;;0.20;;
14400;SDS011;7285;50.894;5.462;2022-09-01T12:08:50;0.10;;;0.10;;
14400;SDS011;7285;50.894;5.462;2022-09-01T12:11:21;0.00;;;0.00;;
14400;SDS011;7285;50.894;5.462;2022-09-01T12:13:58;0.00;;;0.00;;
14400;SDS011;7285;50.894;5.462;2022-09-01T12:16:27;0.00;;;0.00;;
14400;SDS011;7285;50.894;5.462;2022-09-01T12:18:56;0.10;;;0.10;;
14400;SDS011;7285;50.894;5.462;2022-09-01T12:21:25;0.25;;;0.22;;
14400;SDS011;7285;50.894;5.462;2022-09-01T12:23:54;0.00;;;0.00;;
14400;SDS011;7285;50.894;5.462;2022-09-01T12:26:37;0.00;;;0.00;;
14400;SDS011;7285;50.894;5.462;2022-09-01T12:29:04;0.00;;;0.00;;
14400;SDS011;7285;50.894;5.462;2022-09-01T12:31:32;0.00;;;0.00;;
14400;SDS011;7285;50.894;5.462;2022-09-01T12:33:59;0.00;;;0.00;;
14400;SDS011;7285;50.894;5.462;2022-09-01T12:36:29;0.00;;;0.00;;
14400;SDS011;7285;50.894;5.462;2022-09-01T12:39:17;0.00;;;0.00;;
14400;SDS011;7285;50.894;5.462;2022-09-01T12:41:45;0.00;;;0.00;;
14400;SDS011;7285;50.894;5.462;2022-09-01T12:44:26;0.10;;;0.10;;
14400;SDS011;7285;50.894;5.462;2022-09-01T12:46:55;0.00;;;0.00;;
14400;SDS011;7285;50.894;5.462;2022-09-01T12:49:24;0.00;;;0.00;;
14400;SDS011;7285;50.894;5.462;2022-09-01T12:54:53;0.00;;;0.00;;
14400;SDS011;7285;50.894;5.462;2022-09-01T12:57:35;0.10;;;0.10;;
14400;SDS011;7285;50.894;5.462;2022-09-01T13:00:04;0.00;;;0.00;;
14400;SDS011;7285;50.894;5.462;2022-09-01T13:02:44;0.00;;;0.00;;
14400;SDS011;7285;50.894;5.462;2022-09-01T13:05:22;0.10;;;0.10;;
14400;SDS011;7285;50.894;5.462;2022-09-01T13:07:53;0.10;;;0.10;;
14400;SDS011;7285;50.894;5.462;2022-09-01T13:10:23;0.22;;;0.22;;
14400;SDS011;7285;50.894;5.462;2022-09-01T13:12:52;0.05;;;0.05;;
14400;SDS011;7285;50.894;5.462;2022-09-01T13:15:19;0.00;;;0.00;;
14400;SDS011;7285;50.894;5.462;2022-09-01T13:17:46;0.00;;;0.00;;
14400;SDS011;7285;50.894;5.462;2022-09-01T13:20:13;0.10;;;0.10;;
14400;SDS011;7285;50.894;5.462;2022-09-01T13:22:40;0.10;;;0.10;;
14400;SDS011;7285;50.894;5.462;2022-09-01T13:25:09;0.00;;;0.00;;
14400;SDS011;7285;50.894;5.462;2022-09-01T13:27:38;0.00;;;0.00;;
14400;SDS011;7285;50.894;5.462;2022-09-01T13:30:08;0.00;;;0.00;;
14400;SDS011;7285;50.894;5.462;2022-09-01T13:32:36;0.30;;;0.20;;
14400;SDS011;7285;50.894;5.462;2022-09-01T13:35:03;0.00;;;0.00;;
14400;SDS011;7285;50.894;5.462;2022-09-01T13:37:30;0.00;;;0.00;;
14400;SDS011;7285;50.894;5.462;2022-09-01T13:39:57;0.00;;;0.00;;
14400;SDS011;7285;50.894;5.462;2022-09-01T13:42:24;0.00;;;0.00;;
14400;SDS011;7285;50.894;5.462;2022-09-01T13:44:53;0.10;;;0.10;;
14400;SDS011;7285;50.894;5.462;2022-09-01T13:47:20;0.03;;;0.03;;
14400;SDS011;7285;50.894;5.462;2022-09-01T13:49:48;0.10;;;0.10;;
14400;SDS011;7285;50.894;5.462;2022-09-01T13:52:15;0.00;;;0.00;;
14400;SDS011;7285;50.894;5.462;2022-09-01T13:54:42;0.00;;;0.00;;
14400;SDS011;7285;50.894;5.462;2022-09-01T13:57:09;0.10;;;0.10;;
14400;SDS011;7285;50.894;5.462;2022-09-01T13:59:38;0.00;;;0.00;;
14400;SDS011;7285;50.894;5.462;2022-09-01T14:02:07;0.10;;;0.10;;
14400;SDS011;7285;50.894;5.462;2022-09-01T14:04:34;0.00;;;0.00;;
14400;SDS011;7285;50.894;5.462;2022-09-01T14:07:01;0.05;;;0.05;;
14400;SDS011;7285;50.894;5.462;2022-09-01T14:09:28;0.00;;;0.00;;
14400;SDS011;7285;50.894;5.462;2022-09-01T14:11:55;0.10;;;0.10;;
14400;SDS011;7285;50.894;5.462;2022-09-01T14:14:23;0.00;;;0.00;;
14400;SDS011;7285;50.894;5.462;2022-09-01T14:16:50;0.10;;;0.10;;
14400;SDS011;7285;50.894;5.462;2022-09-01T14:19:19;0.00;;;0.00;;
14400;SDS011;7285;50.894;5.462;2022-09-01T14:21:47;0.20;;;0.20;;
14400;SDS011;7285;50.894;5.462;2022-09-01T14:24:14;0.00;;;0.00;;
14400;SDS011;7285;50.894;5.462;2022-09-01T14:26:43;0.00;;;0.00;;
14400;SDS011;7285;50.894;5.462;2022-09-01T14:29:10;0.10;;;0.10;;
14400;SDS011;7285;50.894;5.462;2022-09-01T14:31:37;0.03;;;0.03;;
14400;SDS011;7285;50.894;5.462;2022-09-01T14:34:06;0.00;;;0.00;;
14400;SDS011;7285;50.894;5.462;2022-09-01T14:36:36;0.00;;;0.00;;
14400;SDS011;7285;50.894;5.462;2022-09-01T14:39:04;0.10;;;0.10;;
14400;SDS011;7285;50.894;5.462;2022-09-01T14:41:31;0.10;;;0.10;;
14400;SDS011;7285;50.894;5.462;2022-09-01T14:43:58;0.00;;;0.00;;
14400;SDS011;7285;50.894;5.462;2022-09-01T14:46:26;0.00;;;0.00;;
14400;SDS011;7285;50.894;5.462;2022-09-01T14:48:55;0.10;;;0.10;;
14400;SDS011;7285;50.894;5.462;2022-09-01T14:51:22;0.10;;;0.10;;
14400;SDS011;7285;50.894;5.462;2022-09-01T14:53:52;0.10;;;0.10;;
14400;SDS011;7285;50.894;5.462;2022-09-01T14:56:20;0.10;;;0.10;;
14400;SDS011;7285;50.894;5.462;2022-09-01T14:58:47;0.10;;;0.10;;
14400;SDS011;7285;50.894;5.462;2022-09-01T15:01:17;0.00;;;0.00;;
14400;SDS011;7285;50.894;5.462;2022-09-01T15:03:47;0.00;;;0.00;;
14400;SDS011;7285;50.894;5.462;2022-09-01T15:06:14;0.08;;;0.08;;
14400;SDS011;7285;50.894;5.462;2022-09-01T15:08:42;0.10;;;0.10;;
14400;SDS011;7285;50.894;5.462;2022-09-01T15:11:12;0.00;;;0.00;;
14400;SDS011;7285;50.894;5.462;2022-09-01T15:13:40;0.03;;;0.03;;
14400;SDS011;7285;50.894;5.462;2022-09-01T15:16:12;0.00;;;0.00;;
14400;SDS011;7285;50.894;5.462;2022-09-01T15:18:40;0.20;;;0.20;;
14400;SDS011;7285;50.894;5.462;2022-09-01T15:21:07;0.20;;;0.20;;
14400;SDS011;7285;50.894;5.462;2022-09-01T15:23:34;7.03;;;0.65;;
14400;SDS011;7285;50.894;5.462;2022-09-01T15:26:01;0.05;;;0.05;;
14400;SDS011;7285;50.894;5.462;2022-09-01T15:28:29;0.00;;;0.00;;
14400;SDS011;7285;50.894;5.462;2022-09-01T15:30:56;0.05;;;0.05;;
14400;SDS011;7285;50.894;5.462;2022-09-01T15:33:24;0.10;;;0.10;;